Time;durP1;ratioP1;P1;durP2;ratioP2;P2;SDS_P1;SDS_P2;PMS_P1;PMS_P2;Temp;Humidity;BMP_temperature;BMP_pressure;BME280_temperature;BME280_humidity;BME280_pressure;Samples;Min_cycle;Max_cycle;Signal;HPM_P1;HPM_P2
2023/09/22 00:02:07;;;;;;;2.83;1.27;;;;;;;22.76;100.00;99989.91;5070374;28;20225;-75
2023/09/22 00:04:35;;;;;;;1.63;1.40;;;;;;;22.58;100.00;99985.28;5071257;28;20226;-74
2023/09/22 00:07:02;;;;;;;2.30;1.13;;;;;;;22.31;100.00;99970.38;5071036;28;20203;-74
2023/09/22 00:09:29;;;;;;;3.60;2.35;;;;;;;22.19;100.00;100004.22;5071180;28;20203;-74
2023/09/22 00:11:57;;;;;;;4.45;2.75;;;;;;;22.09;100.00;100018.66;5070310;28;20203;-75
2023/09/22 00:14:26;;;;;;;1.65;1.55;;;;;;;22.05;100.00;100011.75;5070510;28;20741;-75
2023/09/22 00:16:53;;;;;;;4.43;1.88;;;;;;;21.91;100.00;99991.97;5070982;28;20199;-75
2023/09/22 00:19:20;;;;;;;1.38;1.38;;;;;;;21.97;100.00;99994.44;5070544;28;20199;-75
2023/09/22 00:21:47;;;;;;;1.45;1.35;;;;;;;21.92;100.00;99999.00;5071021;28;20206;-75
2023/09/22 00:24:14;;;;;;;2.80;1.98;;;;;;;21.99;100.00;99998.75;5070265;28;20199;-75
2023/09/22 00:26:41;;;;;;;1.40;1.30;;;;;;;21.90;100.00;99977.94;5070673;28;20206;-74
2023/09/22 00:29:08;;;;;;;2.83;1.13;;;;;;;22.02;100.00;99996.00;5070399;28;20207;-75
2023/09/22 00:31:36;;;;;;;1.85;1.75;;;;;;;22.00;100.00;99978.50;5070645;28;20199;-75
2023/09/22 00:34:03;;;;;;;3.17;1.02;;;;;;;22.04;100.00;99994.19;5070716;28;20229;-75
2023/09/22 00:36:29;;;;;;;1.25;1.25;;;;;;;22.03;100.00;99997.72;5070732;28;20569;-75
2023/09/22 00:38:56;;;;;;;1.10;1.00;;;;;;;22.08;100.00;99995.78;5070431;28;20199;-75
2023/09/22 00:41:23;;;;;;;1.65;1.30;;;;;;;22.11;100.00;99995.72;5072107;28;20246;-75
2023/09/22 00:43:50;;;;;;;3.13;2.03;;;;;;;22.12;100.00;100002.69;5038854;28;20290;-74
2023/09/22 00:46:21;;;;;;;2.60;1.40;;;;;;;22.17;100.00;100005.19;5054939;28;20206;-74
2023/09/22 00:48:50;;;;;;;1.30;1.25;;;;;;;22.23;100.00;100003.19;5074229;28;20658;-74
2023/09/22 00:51:19;;;;;;;1.65;1.55;;;;;;;22.26;100.00;99994.31;5038637;28;20202;-75
2023/09/22 00:53:48;;;;;;;1.75;1.60;;;;;;;22.14;100.00;99984.16;5073786;28;20256;-74
2023/09/22 00:56:16;;;;;;;1.67;1.58;;;;;;;22.14;100.00;99990.31;5038399;28;20670;-75
2023/09/22 00:58:43;;;;;;;2.75;1.98;;;;;;;22.07;100.00;99985.28;5074156;28;20202;-75
2023/09/22 01:01:10;;;;;;;1.00;1.00;;;;;;;22.13;100.00;99999.16;5073831;28;20199;-74
2023/09/22 01:03:36;;;;;;;3.38;1.40;;;;;;;22.11;100.00;99990.44;5073701;28;20199;-75
2023/09/22 01:06:05;;;;;;;1.15;1.13;;;;;;;22.12;100.00;99985.97;5073738;28;20226;-75
2023/09/22 01:08:31;;;;;;;1.90;1.70;;;;;;;22.00;100.00;99982.00;5038398;28;20233;-75
2023/09/22 01:10:58;;;;;;;1.20;1.20;;;;;;;22.03;100.00;99973.09;5073859;28;20642;-75
2023/09/22 01:13:25;;;;;;;2.70;1.60;;;;;;;21.99;100.00;99968.84;5073692;28;20226;-74
2023/09/22 01:15:52;;;;;;;5.25;1.48;;;;;;;21.76;100.00;99914.13;5074156;28;20260;-74
2023/09/22 01:18:19;;;;;;;3.15;1.67;;;;;;;21.91;100.00;99944.44;5074466;28;20264;-75
2023/09/22 01:20:46;;;;;;;1.55;1.30;;;;;;;21.94;100.00;99971.63;5038791;28;20202;-74
2023/09/22 01:23:15;;;;;;;1.52;1.42;;;;;;;21.93;100.00;99963.75;5073195;28;20647;-74
2023/09/22 01:25:43;;;;;;;1.20;1.20;;;;;;;21.96;100.00;99977.72;5073320;28;20238;-75
2023/09/22 01:28:10;;;;;;;1.17;1.10;;;;;;;21.97;100.00;99975.94;5037967;28;20191;-75
2023/09/22 01:30:38;;;;;;;1.60;1.50;;;;;;;21.96;100.00;99990.94;5072966;28;20198;-74
2023/09/22 01:33:05;;;;;;;1.83;1.73;;;;;;;21.84;100.00;99967.53;5072328;28;20199;-75
2023/09/22 01:35:33;;;;;;;0.85;0.85;;;;;;;21.92;100.00;99976.09;5072551;28;20680;-75
2023/09/22 01:38:10;;;;;;;5.82;1.38;;;;;;;21.97;100.00;99982.09;5072835;28;20202;-75
2023/09/22 01:40:38;;;;;;;1.10;0.98;;;;;;;22.04;100.00;99982.75;5072848;28;20205;-75
2023/09/22 01:43:05;;;;;;;1.70;1.33;;;;;;;21.85;100.00;99966.63;5072214;28;20202;-76
2023/09/22 01:45:32;;;;;;;5.38;1.70;;;;;;;21.57;100.00;99919.16;5072388;28;20222;-75
2023/09/22 01:47:58;;;;;;;1.60;1.50;;;;;;;21.87;100.00;99979.78;5072297;28;20217;-75
2023/09/22 01:50:26;;;;;;;1.35;1.25;;;;;;;21.86;100.00;99992.13;5072944;28;20226;-75
2023/09/22 01:52:53;;;;;;;3.30;1.02;;;;;;;21.83;100.00;99973.72;5072396;28;20649;-77
2023/09/22 01:55:20;;;;;;;2.08;1.85;;;;;;;21.83;100.00;99971.06;5072789;28;20238;-77
2023/09/22 01:57:49;;;;;;;1.20;1.10;;;;;;;21.85;100.00;99971.91;5072692;28;20582;-77
2023/09/22 02:00:18;;;;;;;2.30;1.83;;;;;;;21.76;100.00;99973.03;5072744;28;20226;-77
2023/09/22 02:02:46;;;;;;;1.23;1.23;;;;;;;21.38;100.00;99928.56;5072689;28;20207;-77
2023/09/22 02:05:14;;;;;;;2.03;1.20;;;;;;;21.55;100.00;99960.53;5072612;28;20223;-76
2023/09/22 02:07:42;;;;;;;1.45;1.35;;;;;;;21.59;100.00;99974.50;5072430;28;20760;-77
2023/09/22 02:10:10;;;;;;;7.20;1.77;;;;;;;21.54;100.00;99981.72;5072840;28;20202;-76
2023/09/22 02:12:37;;;;;;;3.80;2.00;;;;;;;21.50;100.00;99980.06;5054191;28;20283;-78
2023/09/22 02:15:09;;;;;;;3.15;1.73;;;;;;;21.61;100.00;99983.25;5072445;28;20284;-77
2023/09/22 02:17:36;;;;;;;1.95;1.85;;;;;;;21.38;100.00;99952.28;5053991;28;20199;-77
2023/09/22 02:20:07;;;;;;;2.03;1.92;;;;;;;21.45;100.00;99960.88;5072082;28;20569;-77
2023/09/22 02:22:35;;;;;;;1.13;1.13;;;;;;;21.33;100.00;99964.78;5072352;28;20202;-78
2023/09/22 02:25:02;;;;;;;2.28;2.08;;;;;;;21.54;100.00;99995.78;5072436;28;20258;-77
2023/09/22 02:27:28;;;;;;;1.73;1.63;;;;;;;21.56;100.00;99990.44;5072492;28;20195;-78
2023/09/22 02:29:56;;;;;;;1.42;1.33;;;;;;;21.56;100.00;99999.22;5072464;28;20203;-77
2023/09/22 02:32:26;;;;;;;1.98;1.67;;;;;;;21.44;100.00;99970.56;5072169;28;20222;-77
2023/09/22 02:34:53;;;;;;;1.40;1.35;;;;;;;21.55;100.00;100004.53;5072264;28;20198;-76
2023/09/22 02:37:20;;;;;;;1.55;1.45;;;;;;;21.27;100.00;99964.94;5072064;28;20198;-75
2023/09/22 02:39:47;;;;;;;2.05;1.52;;;;;;;21.43;100.00;100004.94;5072297;28;20215;-76
2023/09/22 02:42:14;;;;;;;2.38;2.00;;;;;;;21.42;100.00;100008.47;5072010;28;20665;-79
2023/09/22 02:44:41;;;;;;;1.52;1.23;;;;;;;21.42;100.00;100005.81;5037351;28;20651;-76
2023/09/22 02:47:08;;;;;;;1.00;1.00;;;;;;;21.21;100.00;100013.47;5071938;28;20218;-76
2023/09/22 02:49:36;;;;;;;2.58;1.80;;;;;;;21.31;100.00;99998.22;5072286;28;20221;-76
2023/09/22 02:52:03;;;;;;;3.60;1.73;;;;;;;21.06;100.00;99978.75;5071772;28;20252;-76
2023/09/22 02:54:30;;;;;;;6.18;1.92;;;;;;;21.32;100.00;100013.16;5072004;28;20195;-77
2023/09/22 02:56:57;;;;;;;1.95;1.80;;;;;;;21.27;100.00;100015.06;5071714;28;20202;-76
2023/09/22 02:59:23;;;;;;;2.80;1.85;;;;;;;21.29;100.00;100023.81;5071807;28;20203;-77
2023/09/22 03:01:50;;;;;;;2.17;2.08;;;;;;;21.32;100.00;100022.84;5066032;28;20644;-76
2023/09/22 03:04:17;;;;;;;1.90;1.80;;;;;;;21.34;100.00;100028.91;5050892;28;20610;-76
2023/09/22 03:06:45;;;;;;;9.30;1.77;;;;;;;21.25;100.00;100028.31;5056482;28;20238;-76
2023/09/22 03:09:14;;;;;;;1.10;1.05;;;;;;;21.17;100.00;100038.22;5071829;28;20207;-76
2023/09/22 03:11:41;;;;;;;1.50;1.38;;;;;;;21.14;100.00;100022.47;5071620;28;20286;-77
2023/09/22 03:14:08;;;;;;;1.38;1.38;;;;;;;21.23;100.00;100040.66;5071851;28;20251;-77
2023/09/22 03:16:35;;;;;;;2.25;1.63;;;;;;;20.95;100.00;100002.78;5071753;28;20296;-77
2023/09/22 03:19:02;;;;;;;2.63;1.73;;;;;;;21.21;100.00;100049.53;5071475;28;20203;-76
2023/09/22 03:21:29;;;;;;;1.70;1.60;;;;;;;21.21;100.00;100039.84;5071682;28;20248;-77
2023/09/22 03:23:57;;;;;;;2.15;1.55;;;;;;;21.31;100.00;100032.53;5071687;28;20199;-76
2023/09/22 03:26:23;;;;;;;1.70;1.60;;;;;;;21.25;100.00;100030.94;5071322;28;20690;-77
2023/09/22 03:28:50;;;;;;;1.35;1.27;;;;;;;21.27;100.00;100037.03;5071413;28;20198;-76
2023/09/22 03:31:19;;;;;;;1.50;1.20;;;;;;;21.21;100.00;100031.94;5069853;28;20210;-77
2023/09/22 03:33:46;;;;;;;1.40;1.30;;;;;;;21.20;100.00;100019.66;5071432;28;20613;-76
2023/09/22 03:36:14;;;;;;;2.25;2.13;;;;;;;21.21;100.00;100026.66;5071166;28;20237;-76
2023/09/22 03:38:42;;;;;;;1.00;1.00;;;;;;;21.09;100.00;100005.88;5071143;28;20289;-77
2023/09/22 03:41:12;;;;;;;1.38;1.27;;;;;;;21.10;100.00;100012.94;5071139;28;20210;-77
2023/09/22 03:43:39;;;;;;;2.65;1.58;;;;;;;21.06;100.00;100019.16;5071252;28;20257;-75
2023/09/22 03:46:07;;;;;;;1.73;1.40;;;;;;;20.99;100.00;100022.00;5070845;28;20592;-75
2023/09/22 03:48:33;;;;;;;1.70;1.48;;;;;;;20.98;100.00;100026.41;5071211;28;20252;-76
2023/09/22 03:51:00;;;;;;;1.38;1.27;;;;;;;20.92;100.00;100034.50;5070935;28;20628;-76
2023/09/22 03:53:27;;;;;;;1.40;1.30;;;;;;;20.28;100.00;99941.41;5071656;28;20589;-75
2023/09/22 03:55:54;;;;;;;2.67;1.30;;;;;;;20.59;100.00;100025.75;5070952;28;20601;-77
2023/09/22 03:58:22;;;;;;;1.35;1.25;;;;;;;20.77;100.00;100040.19;5071166;28;20195;-77
2023/09/22 04:00:49;;;;;;;2.33;1.27;;;;;;;20.49;100.00;100023.38;5070952;28;20678;-77
2023/09/22 04:03:18;;;;;;;3.47;1.70;;;;;;;20.74;100.00;100045.53;5032042;28;20203;-80
2023/09/22 04:05:45;;;;;;;3.47;1.92;;;;;;;20.90;100.00;100043.38;5069811;28;20342;-76
2023/09/22 04:08:12;;;;;;;1.73;1.63;;;;;;;20.92;100.00;100037.13;5052383;28;20225;-76
2023/09/22 04:10:39;;;;;;;1.13;1.13;;;;;;;20.91;100.00;100038.03;5035430;28;20198;-76
2023/09/22 04:13:06;;;;;;;1.60;1.55;;;;;;;20.95;100.00;100041.44;5071020;28;20202;-76
2023/09/22 04:15:35;;;;;;;9.25;2.00;;;;;;;21.11;100.00;100041.03;5071479;28;20191;-77
2023/09/22 04:18:02;;;;;;;1.67;1.58;;;;;;;21.09;100.00;100040.16;5036346;28;20191;-75
2023/09/22 04:20:32;;;;;;;1.45;1.30;;;;;;;21.19;100.00;100043.41;5059981;28;20260;-75
2023/09/22 04:22:59;;;;;;;1.42;1.33;;;;;;;21.27;100.00;100044.94;5056579;28;20269;-74
2023/09/22 04:25:31;;;;;;;1.30;1.30;;;;;;;21.39;100.00;100051.63;5039338;28;20199;-76
2023/09/22 04:28:07;;;;;;;1.20;1.10;;;;;;;21.38;100.00;100049.03;5074394;28;20198;-78
2023/09/22 04:30:36;;;;;;;1.30;1.30;;;;;;;21.68;100.00;100056.03;5074463;28;20597;-74
2023/09/22 04:33:04;;;;;;;1.75;1.65;;;;;;;21.64;100.00;100041.22;5074398;28;20191;-76
2023/09/22 04:35:32;;;;;;;4.78;1.67;;;;;;;21.52;100.00;100020.47;5074691;28;20199;-76
2023/09/22 04:37:59;;;;;;;1.10;1.10;;;;;;;21.85;100.00;100055.50;5074379;28;20225;-78
2023/09/22 04:40:29;;;;;;;1.75;1.65;;;;;;;22.07;100.00;100057.47;5074276;28;20210;-76
2023/09/22 04:42:56;;;;;;;2.55;2.35;;;;;;;22.39;100.00;100061.69;5040085;28;20199;-78
2023/09/22 04:45:23;;;;;;;4.70;1.98;;;;;;;22.68;100.00;100050.16;5074081;28;20221;-77
2023/09/22 04:47:52;;;;;;;1.13;1.13;;;;;;;22.99;100.00;100049.91;5074312;28;20199;-79
2023/09/22 04:50:19;;;;;;;2.92;1.60;;;;;;;22.96;100.00;100029.75;5074111;28;20273;-78
2023/09/22 04:52:47;;;;;;;2.97;1.88;;;;;;;23.00;100.00;100036.66;5074423;28;20194;-81
2023/09/22 04:55:16;;;;;;;1.80;1.70;;;;;;;23.18;100.00;100067.72;5074000;28;20661;-79
2023/09/22 04:57:43;;;;;;;1.17;1.17;;;;;;;23.06;100.00;100056.72;5073805;28;20198;-73
2023/09/22 05:00:16;;;;;;;1.30;1.20;;;;;;;23.15;100.00;100054.59;5073884;28;20213;-77
2023/09/22 05:02:44;;;;;;;2.40;2.20;;;;;;;23.17;100.00;100055.41;5074014;28;20264;-75
2023/09/22 05:05:12;;;;;;;14.38;4.45;;;;;;;23.14;100.00;100044.94;5073630;28;20241;-75
2023/09/22 05:07:39;;;;;;;3.40;2.45;;;;;;;23.19;100.00;100058.84;5073645;28;20218;-74
2023/09/22 05:10:07;;;;;;;2.17;1.67;;;;;;;23.04;100.00;100032.13;5073545;28;20203;-76
2023/09/22 05:12:35;;;;;;;1.05;1.05;;;;;;;23.17;100.00;100050.13;5073263;28;20226;-76
2023/09/22 05:15:03;;;;;;;3.38;1.92;;;;;;;23.03;100.00;100062.97;5083473;28;20240;-72
2023/09/22 05:17:30;;;;;;;1.67;1.58;;;;;;;22.88;100.00;100071.47;5094217;28;20208;-71
2023/09/22 05:19:58;;;;;;;6.07;1.42;;;;;;;22.68;100.00;100066.00;5077917;28;20195;-80
2023/09/22 05:22:26;;;;;;;1.42;1.33;;;;;;;22.63;100.00;100067.91;5074145;28;20210;-79
2023/09/22 05:24:53;;;;;;;1.67;1.58;;;;;;;22.70;100.00;100064.16;5036006;28;20203;-80
2023/09/22 05:27:19;;;;;;;1.50;1.05;;;;;;;22.75;100.00;100054.31;5053794;28;20226;-78
2023/09/22 05:29:46;;;;;;;2.92;1.50;;;;;;;22.57;100.00;100041.69;5074018;28;20203;-80
2023/09/22 05:32:13;;;;;;;2.88;1.77;;;;;;;22.73;100.00;100053.47;5038488;28;20202;-79
2023/09/22 05:34:40;;;;;;;1.52;1.45;;;;;;;22.59;100.00;100064.50;5033814;28;20218;-78
2023/09/22 05:37:07;;;;;;;1.35;1.25;;;;;;;22.56;100.00;100072.53;5053651;28;20214;-79
2023/09/22 05:39:37;;;;;;;3.78;1.75;;;;;;;22.87;100.00;100082.06;5053604;28;20683;-78
2023/09/22 05:42:03;;;;;;;4.60;1.50;;;;;;;23.09;100.00;100065.41;5072837;28;20681;-74
2023/09/22 05:44:30;;;;;;;2.40;1.83;;;;;;;22.72;100.00;99972.47;5073077;28;20198;-75
2023/09/22 05:46:57;;;;;;;6.30;1.60;;;;;;;23.71;100.00;100078.09;5073322;28;20225;-72
2023/09/22 05:49:24;;;;;;;3.47;2.13;;;;;;;24.20;100.00;100077.03;5072843;28;20207;-73
2023/09/22 05:51:51;;;;;;;2.17;1.98;;;;;;;24.58;100.00;100081.59;5037855;28;20210;-79
2023/09/22 05:54:18;;;;;;;3.67;1.55;;;;;;;24.99;100.00;100079.00;5071895;28;20281;-72
2023/09/22 05:56:47;;;;;;;2.03;1.38;;;;;;;25.50;100.00;100075.81;5073370;28;20195;-73
2023/09/22 05:59:14;;;;;;;1.30;1.20;;;;;;;25.62;100.00;100077.91;5072657;28;20203;-73
2023/09/22 06:01:41;;;;;;;1.85;1.17;;;;;;;25.59;99.29;100089.53;5065533;28;20221;-75
2023/09/22 06:04:09;;;;;;;0.95;0.95;;;;;;;25.14;100.00;100100.44;5031666;28;20286;-77
2023/09/22 06:06:36;;;;;;;1.23;1.20;;;;;;;25.18;100.00;100095.84;5072434;28;20259;-74
2023/09/22 06:09:10;;;;;;;11.95;2.00;;;;;;;24.90;100.00;100059.03;5070004;28;20194;-75
2023/09/22 06:11:37;;;;;;;1.30;1.20;;;;;;;23.85;100.00;99866.56;5072247;28;20199;-78
2023/09/22 06:14:06;;;;;;;1.15;1.13;;;;;;;25.20;100.00;100101.06;5037217;28;20314;-76
2023/09/22 06:16:32;;;;;;;2.22;2.13;;;;;;;25.15;100.00;100091.50;5072354;28;20571;-75
2023/09/22 06:19:00;;;;;;;2.85;1.90;;;;;;;25.35;100.00;100087.97;5072219;28;20321;-76
2023/09/22 06:21:29;;;;;;;1.33;1.23;;;;;;;25.36;100.00;100089.72;5036990;28;20191;-78
2023/09/22 06:23:57;;;;;;;1.40;1.30;;;;;;;25.22;100.00;100073.50;5072364;28;20195;-77
2023/09/22 06:26:24;;;;;;;3.88;2.05;;;;;;;25.23;100.00;100067.28;5071948;28;20222;-77
2023/09/22 06:28:50;;;;;;;2.60;1.73;;;;;;;25.19;100.00;100073.66;5072210;28;20203;-74
2023/09/22 06:31:19;;;;;;;2.22;1.67;;;;;;;25.15;100.00;100110.09;5071843;28;20195;-79
2023/09/22 06:33:48;;;;;;;1.45;1.40;;;;;;;25.15;100.00;100104.78;5071685;28;20210;-80
2023/09/22 06:36:14;;;;;;;1.40;1.30;;;;;;;25.18;100.00;100112.59;5071946;28;20600;-80
2023/09/22 06:38:41;;;;;;;19.10;2.20;;;;;;;25.15;100.00;100127.81;5072036;28;20209;-79
2023/09/22 06:41:08;;;;;;;4.75;2.38;;;;;;;24.98;100.00;100144.47;5067109;28;20282;-82
2023/09/22 06:43:36;;;;;;;2.80;1.80;;;;;;;24.73;100.00;100141.09;5061661;28;20211;-79
2023/09/22 06:46:04;;;;;;;2.05;1.95;;;;;;;24.76;100.00;100132.16;5073939;28;20733;-77
2023/09/22 06:48:32;;;;;;;2.30;1.80;;;;;;;24.88;100.00;100145.78;5072165;28;20222;-82
2023/09/22 06:51:00;;;;;;;2.50;1.50;;;;;;;24.72;100.00;100127.91;5071613;28;20203;-83
2023/09/22 06:53:28;;;;;;;2.88;1.73;;;;;;;24.81;100.00;100119.56;5051772;28;20211;-82
2023/09/22 06:56:06;;;;;;;2.22;1.77;;;;;;;25.05;100.00;100122.03;5054551;28;20234;-80
2023/09/22 06:58:33;;;;;;;2.35;1.73;;;;;;;25.19;100.00;100126.75;5052224;28;20954;-82
2023/09/22 07:01:07;;;;;;;1.33;1.23;;;;;;;25.45;100.00;100138.84;5069617;28;21522;-77
2023/09/22 07:03:35;;;;;;;1.88;1.77;;;;;;;25.52;100.00;100143.00;5054990;28;20199;-82
2023/09/22 07:06:02;;;;;;;2.92;1.95;;;;;;;25.49;100.00;100143.09;5071688;28;20202;-82
2023/09/22 07:08:29;;;;;;;2.05;1.63;;;;;;;25.55;100.00;100145.50;5071243;28;20222;-81
2023/09/22 07:11:01;;;;;;;2.20;1.30;;;;;;;25.53;100.00;100134.09;5071400;28;20203;-82
2023/09/22 07:13:29;;;;;;;3.17;2.22;;;;;;;25.61;100.00;100150.56;5069989;28;20341;-80
2023/09/22 07:15:57;;;;;;;2.17;1.73;;;;;;;25.58;100.00;100153.34;5036446;28;20207;-78
2023/09/22 07:18:24;;;;;;;4.18;2.35;;;;;;;25.59;100.00;100144.44;5071549;28;20195;-84
2023/09/22 07:20:52;;;;;;;1.20;1.10;;;;;;;25.71;100.00;100162.50;5051722;28;20617;-83
2023/09/22 07:23:19;;;;;;;10.48;1.40;;;;;;;25.59;100.00;100144.44;5070906;28;20199;-77
2023/09/22 07:25:46;;;;;;;1.95;1.42;;;;;;;25.78;100.00;100160.41;5070908;28;20248;-75
2023/09/22 07:28:13;;;;;;;2.55;1.70;;;;;;;25.63;100.00;100140.72;5070605;28;20211;-73
2023/09/22 07:30:40;;;;;;;4.47;2.70;;;;;;;25.70;100.00;100157.22;5069522;28;20256;-74
2023/09/22 07:33:09;;;;;;;6.65;2.80;;;;;;;26.05;100.00;100161.78;5070604;28;20203;-72
2023/09/22 07:35:35;;;;;;;5.07;2.75;;;;;;;25.98;100.00;100158.53;5070889;28;20193;-75
2023/09/22 07:38:04;;;;;;;2.80;1.65;;;;;;;26.20;100.00;100162.88;5070914;28;20244;-75
2023/09/22 07:40:31;;;;;;;3.88;1.88;;;;;;;26.15;100.00;100155.94;5035621;28;20210;-73
2023/09/22 07:42:57;;;;;;;4.82;2.10;;;;;;;26.35;100.00;100167.47;5051572;28;20206;-75
2023/09/22 07:45:24;;;;;;;3.22;1.48;;;;;;;26.59;100.00;100167.13;5053625;28;20378;-80
2023/09/22 07:47:51;;;;;;;6.25;2.15;;;;;;;26.49;100.00;100157.00;5021006;28;20226;-75
2023/09/22 07:50:20;;;;;;;2.53;1.63;;;;;;;26.49;100.00;100149.03;5069551;28;20594;-78
2023/09/22 07:52:46;;;;;;;6.50;2.60;;;;;;;26.53;100.00;100161.25;5074095;28;20258;-78
2023/09/22 07:55:15;;;;;;;4.00;2.03;;;;;;;26.91;100.00;100157.56;5072826;28;20198;-79
2023/09/22 07:57:46;;;;;;;3.47;1.85;;;;;;;26.91;100.00;100156.69;5050759;28;20290;-73
2023/09/22 08:00:14;;;;;;;2.72;1.67;;;;;;;26.80;100.00;100157.22;5068614;28;20564;-74
2023/09/22 08:02:41;;;;;;;1.52;1.40;;;;;;;26.79;100.00;100144.84;5058249;28;20709;-79
2023/09/22 08:05:08;;;;;;;2.90;2.03;;;;;;;27.01;100.00;100150.81;5074690;28;20217;-80
2023/09/22 08:07:35;;;;;;;2.63;1.58;;;;;;;27.20;100.00;100157.88;5070732;28;20219;-76
2023/09/22 08:10:05;;;;;;;3.58;1.95;;;;;;;27.27;98.93;100153.94;5066139;28;20199;-81
2023/09/22 08:12:34;;;;;;;2.70;1.60;;;;;;;27.14;97.93;100158.19;5066257;28;20222;-77
2023/09/22 08:15:00;;;;;;;1.98;1.48;;;;;;;27.08;97.86;100154.91;5072608;28;20233;-78
2023/09/22 08:17:27;;;;;;;4.38;1.52;;;;;;;27.16;97.44;100157.16;5074425;28;20213;-79
2023/09/22 08:19:54;;;;;;;4.40;2.13;;;;;;;27.05;96.73;100136.41;5066974;28;20218;-75
2023/09/22 08:22:21;;;;;;;3.35;1.63;;;;;;;27.45;97.92;100158.34;5073251;28;20194;-75
2023/09/22 08:24:48;;;;;;;2.53;1.98;;;;;;;27.29;95.92;100152.06;5074209;28;20198;-75
2023/09/22 08:27:15;;;;;;;2.70;1.30;;;;;;;27.20;93.36;100104.63;5074347;28;20232;-77
2023/09/22 08:29:43;;;;;;;3.53;1.52;;;;;;;27.56;93.37;100147.97;5056323;28;20219;-77
2023/09/22 08:32:10;;;;;;;3.03;1.48;;;;;;;27.49;91.40;100127.94;5053868;28;20196;-77
2023/09/22 08:34:38;;;;;;;1.85;1.15;;;;;;;27.69;90.77;100130.38;5019226;28;20299;-77
2023/09/22 08:37:05;;;;;;;3.83;1.73;;;;;;;27.67;87.40;100126.06;5054046;28;20283;-76
2023/09/22 08:39:32;;;;;;;3.63;1.40;;;;;;;27.62;87.38;100120.97;5054011;28;20222;-73
2023/09/22 08:41:59;;;;;;;12.80;2.13;;;;;;;28.05;91.35;100147.00;5054003;28;20223;-73
2023/09/22 08:44:27;;;;;;;2.45;1.50;;;;;;;28.07;88.62;100145.13;5053954;28;20231;-72
2023/09/22 08:46:55;;;;;;;1.98;1.65;;;;;;;28.27;89.93;100132.50;5053870;28;20242;-72
2023/09/22 08:49:22;;;;;;;2.20;1.13;;;;;;;28.30;89.13;100145.66;5053819;28;20672;-74
2023/09/22 08:51:49;;;;;;;5.82;1.58;;;;;;;28.12;88.64;100133.34;5054116;28;20287;-71
2023/09/22 08:54:16;;;;;;;4.15;2.38;;;;;;;27.86;89.70;100138.28;5054014;28;20645;-76
2023/09/22 08:56:44;;;;;;;1.65;1.50;;;;;;;27.91;90.95;100114.91;5053942;28;20191;-77
2023/09/22 08:59:12;;;;;;;3.65;2.00;;;;;;;27.85;90.07;100131.25;5064320;28;20195;-75
2023/09/22 09:01:39;;;;;;;3.03;1.63;;;;;;;27.66;90.91;100103.88;5072904;28;20203;-76
2023/09/22 09:04:32;;;;;;;1.70;1.50;;;;;;;28.26;90.15;100130.75;5072428;28;20203;-75
2023/09/22 09:07:01;;;;;;;5.10;1.60;;;;;;;27.95;88.96;100129.81;5072974;28;20289;-78
2023/09/22 09:09:41;;;;;;;3.00;1.58;;;;;;;28.36;88.59;100118.66;5071742;28;20674;-76
2023/09/22 09:12:09;;;;;;;5.65;2.10;;;;;;;28.37;88.60;100123.88;5073582;28;20259;-76
2023/09/22 09:14:38;;;;;;;4.50;2.20;;;;;;;28.54;85.81;100114.88;5073433;28;20322;-75
2023/09/22 09:17:17;;;;;;;3.67;1.90;;;;;;;28.60;85.69;100068.31;5035325;28;20207;-76
2023/09/22 09:19:47;;;;;;;4.13;1.58;;;;;;;28.58;84.16;100073.72;5062422;28;20632;-74
2023/09/22 09:22:14;;;;;;;3.53;1.77;;;;;;;28.85;84.50;100114.84;5063773;28;20597;-71
2023/09/22 09:24:43;;;;;;;2.70;1.77;;;;;;;28.73;83.09;100094.22;5069248;28;20207;-71
2023/09/22 09:27:17;;;;;;;2.90;1.30;;;;;;;29.02;83.09;100105.81;5072928;28;20206;-70
2023/09/22 09:29:45;;;;;;;4.15;1.60;;;;;;;29.03;89.55;100097.72;5069032;28;20230;-74
2023/09/22 09:32:22;;;;;;;2.72;1.83;;;;;;;29.25;80.30;100112.44;5072355;28;20282;-76
2023/09/22 09:34:50;;;;;;;4.43;2.28;;;;;;;29.08;76.04;100107.25;5072331;28;20271;-77
2023/09/22 09:37:17;;;;;;;2.97;1.55;;;;;;;29.07;75.73;100097.53;5072981;28;20639;-81
2023/09/22 09:39:45;;;;;;;18.45;2.03;;;;;;;29.25;71.83;100101.75;5067618;28;20205;-81
2023/09/22 09:42:16;;;;;;;2.53;1.77;;;;;;;29.30;68.79;100099.69;5070208;28;20227;-79
2023/09/22 09:44:49;;;;;;;2.58;1.48;;;;;;;29.05;65.92;100095.81;5072938;28;20221;-80
2023/09/22 09:47:21;;;;;;;1.80;1.08;;;;;;;29.11;69.13;100097.22;5059932;28;20207;-79
2023/09/22 09:49:53;;;;;;;6.35;2.30;;;;;;;28.82;68.95;100093.69;5064425;28;20260;-81
2023/09/22 09:52:27;;;;;;;3.58;1.50;;;;;;;28.76;68.39;100067.34;5072517;28;20675;-79
2023/09/22 09:55:08;;;;;;;1.55;1.20;;;;;;;29.08;67.22;100080.53;5072517;28;20235;-79
2023/09/22 09:57:37;;;;;;;1.13;1.05;;;;;;;29.15;65.55;100087.22;5072509;28;20222;-77
2023/09/22 10:00:12;;;;;;;3.90;1.38;;;;;;;29.31;66.69;100080.91;5072040;28;20198;-82
2023/09/22 10:02:43;;;;;;;4.00;1.83;;;;;;;29.46;66.81;100079.06;5072760;28;20198;-79
2023/09/22 10:05:12;;;;;;;1.45;0.88;;;;;;;29.53;65.81;100081.28;5072623;28;20207;-79
2023/09/22 10:07:39;;;;;;;4.00;1.52;;;;;;;29.55;67.92;100073.13;5072726;28;20226;-75
2023/09/22 10:10:08;;;;;;;1.45;1.35;;;;;;;29.80;67.76;100086.66;5072548;28;20203;-76
2023/09/22 10:12:35;;;;;;;1.42;1.27;;;;;;;29.85;77.44;100081.06;5072337;28;20853;-77
2023/09/22 10:15:04;;;;;;;1.95;1.00;;;;;;;29.81;67.31;100077.69;5072211;28;20231;-75
2023/09/22 10:17:32;;;;;;;1.40;1.08;;;;;;;29.86;66.52;100061.38;5037865;28;20260;-75
2023/09/22 10:20:01;;;;;;;2.67;1.52;;;;;;;30.13;66.65;100074.78;5037361;28;20202;-75
2023/09/22 10:22:29;;;;;;;4.30;2.15;;;;;;;30.33;63.99;100066.28;5072335;28;20226;-75
2023/09/22 10:25:21;;;;;;;2.35;1.08;;;;;;;30.55;63.03;100065.72;5072084;28;20202;-75
2023/09/22 10:27:55;;;;;;;1.50;0.93;;;;;;;30.45;63.90;100055.66;5036972;28;20254;-74
2023/09/22 10:30:22;;;;;;;5.05;1.50;;;;;;;30.11;67.45;100060.66;5072056;28;20230;-74
2023/09/22 10:32:49;;;;;;;1.55;1.15;;;;;;;30.26;66.73;100064.97;5071972;28;20202;-74
2023/09/22 10:35:41;;;;;;;1.10;0.98;;;;;;;30.45;64.03;100060.16;5071952;28;20199;-75
2023/09/22 10:38:11;;;;;;;2.92;1.40;;;;;;;30.35;63.44;100057.22;5071891;28;20249;-74
2023/09/22 10:40:40;;;;;;;3.78;1.67;;;;;;;30.14;65.03;100033.69;5053097;28;20191;-74
2023/09/22 10:43:07;;;;;;;2.97;1.63;;;;;;;30.15;63.47;100051.44;5071933;28;20202;-75
2023/09/22 10:45:34;;;;;;;1.50;1.00;;;;;;;30.19;65.31;100040.44;5071579;28;20199;-74
2023/09/22 10:48:02;;;;;;;2.53;1.35;;;;;;;30.43;64.99;100021.91;5072127;28;20226;-75
2023/09/22 10:50:31;;;;;;;3.92;1.73;;;;;;;30.63;61.81;100036.63;5072098;28;20194;-75
2023/09/22 10:53:00;;;;;;;1.88;1.40;;;;;;;30.63;61.42;100029.47;5071693;28;20284;-75
2023/09/22 10:55:34;;;;;;;3.17;1.10;;;;;;;30.74;61.74;100021.53;5071897;28;20294;-75
2023/09/22 10:58:04;;;;;;;2.65;1.00;;;;;;;30.74;58.09;99999.25;5071642;28;20696;-76
2023/09/22 11:00:32;;;;;;;3.78;1.50;;;;;;;30.79;57.92;100022.06;5071615;28;20248;-75
2023/09/22 11:03:05;;;;;;;1.75;1.25;;;;;;;30.95;57.60;100014.69;5072070;28;20209;-78
2023/09/22 11:05:34;;;;;;;1.67;1.48;;;;;;;30.67;59.43;100019.41;5036657;28;20198;-75
2023/09/22 11:08:01;;;;;;;2.33;1.20;;;;;;;30.90;58.15;100014.16;5037028;28;20611;-75
2023/09/22 11:10:28;;;;;;;9.35;1.83;;;;;;;30.92;57.34;100008.69;5071276;28;20275;-74
2023/09/22 11:12:56;;;;;;;4.03;1.40;;;;;;;31.03;58.14;100013.34;5071498;28;20190;-75
2023/09/22 11:15:23;;;;;;;1.35;1.02;;;;;;;30.75;58.17;100007.16;5071439;28;20215;-80
2023/09/22 11:17:50;;;;;;;2.35;1.30;;;;;;;30.91;58.12;100004.28;5069442;28;20205;-75
2023/09/22 11:20:19;;;;;;;5.82;1.73;;;;;;;31.18;57.65;100006.91;5044423;28;20199;-75
2023/09/22 11:22:47;;;;;;;2.03;1.23;;;;;;;31.26;55.26;99981.25;5071393;28;20202;-74
2023/09/22 11:25:13;;;;;;;1.77;1.02;;;;;;;31.32;54.49;99998.72;5071230;28;20249;-77
2023/09/22 11:27:45;;;;;;;1.40;1.30;;;;;;;31.23;51.64;99967.22;5063961;28;20784;-77